Kirkwood, Illinois
Current Conditions -  °F | °C
As of 6:35 AM on Monday 24 Nov 2014 (Local Time) from KGBG Reporting Station
Light Snow Light Snow  
Wind Chill: 18°   Ceiling: 600
Heat Index: 32°   Visibility: 1.5mi
Dew Point: 31°   Wind: 25mph
Humidity: 97%   Direction: 270°W
Pressure: 29.3"   Gusts: 30mph
Location:  40.87°N, 90.75°W
Report Text: KGBG 241235Z AUTO 27022G26KT 1 1/2SM -SN OVC006 00/00 A2930 RMK AO2 T10011005
Loading
Personal Weather Stations






























Interactive Weather Map New forecast layout! Learn more

10-Day Weather Forecast

Advertisements
Track Severe Weather on mobile